Capitol Logistics 1137


EBLG
Liège Airport
Liege, BE
EDDW
Neuenland Airport
Bremen, DE

Activity Log

Date Flight Route Aircraft Duration
11/05/2019 CPX737 Not Available B738 0h 50m
10/27/2019 CPX737 N0423F310 LNO7S LNO UM170 BASUM T820 PIXUR PIXU3P B738 0h 53m
10/12/2019 CPX737 EBLG LNO7S LNO UM170 NVO BASUM T820 PIXUR PIXU3P EDDW B738 0h 56m

Route Details

Aircraft Information
Primary: Boeing 737-800BCF
Backup: Not Available
Route Data
Distance: 190nm
Sched. Duration: 0h 45m
Avg. Duration: 0h 53m (+8m)
Times Flown: 3
Recm'd Route: Not Available
Planned Altitude: 25,000ft
Origin Wx: EBLG 281050Z 19014KT CAVOK 04/M01 Q1017 NOSIG
Dest. Wx: EDDW 281050Z 25016KT 9999 SCT020 06/02 Q1014 TEMPO 25015G25KT
Notes:

Financial History
Total Freight: 78,144lbs
Average Load: 26,048lbs/flt
Fuel Used: 13,901lbs
Avg. Fuel Used: 4,634lbs/flt
Fuel Expense: $15,430
Avg. Fuel Expense: $5,143
Avg. Fuel Cost: $1.11/lbs
Total Gross Income: $156,288
Pilot Pay: $687
Total Expenses: $17,035
Total Revenue: $123,208
Average Revenue: $52,096.00